createdAt,value
2023-01-01T00:00:39.223Z,12.30
2023-01-01T00:03:05.914Z,12.30
2023-01-01T00:05:32.606Z,12.20
2023-01-01T00:08:04.324Z,12.20
2023-01-01T00:10:31.807Z,12.20
2023-01-01T00:12:59.058Z,12.20
2023-01-01T00:15:27.333Z,12.20
2023-01-01T00:17:54.039Z,12.20
2023-01-01T00:20:20.843Z,12.20
2023-01-01T00:22:56.127Z,12.20
2023-01-01T00:25:23.438Z,12.20
2023-01-01T00:27:50.443Z,12.20
2023-01-01T00:30:17.388Z,12.20
2023-01-01T00:32:55.252Z,12.20
2023-01-01T00:35:24.319Z,12.20
2023-01-01T00:37:50.935Z,12.20
2023-01-01T00:40:18.827Z,12.20
2023-01-01T00:42:45.654Z,12.20
2023-01-01T00:45:18.776Z,12.20
2023-01-01T00:47:48.006Z,12.20
2023-01-01T00:50:14.883Z,12.20
2023-01-01T00:52:41.775Z,12.20
2023-01-01T00:55:08.858Z,12.20
2023-01-01T00:57:35.633Z,12.20
2023-01-01T01:00:02.232Z,12.10
2023-01-01T01:02:29.134Z,12.10
2023-01-01T01:04:55.892Z,12.10
2023-01-01T01:07:22.650Z,12.10
2023-01-01T01:09:49.642Z,12.10
2023-01-01T01:12:17.579Z,12.20
2023-01-01T01:14:46.215Z,12.10
2023-01-01T01:17:12.838Z,12.10
2023-01-01T01:19:39.488Z,12.10
2023-01-01T01:22:06.064Z,12.20
2023-01-01T01:24:32.696Z,12.10
2023-01-01T01:26:59.335Z,12.10
2023-01-01T01:29:26.062Z,12.10
2023-01-01T01:31:52.707Z,12.10
2023-01-01T01:34:25.608Z,12.10
2023-01-01T01:36:54.387Z,12.10
2023-01-01T01:39:21.066Z,12.10
2023-01-01T01:41:47.799Z,12.10
2023-01-01T01:44:48.271Z,12.10
2023-01-01T01:47:28.462Z,12.10
2023-01-01T01:50:11.541Z,12.10
2023-01-01T01:52:42.264Z,12.10
2023-01-01T01:55:09.908Z,12.10
2023-01-01T01:57:39.787Z,12.10
2023-01-01T02:00:11.184Z,12.10
2023-01-01T02:03:18.999Z,12.10
2023-01-01T02:05:46.535Z,12.10
2023-01-01T02:08:15.832Z,12.00
2023-01-01T02:10:43.670Z,12.10
2023-01-01T02:13:10.685Z,12.10
2023-01-01T02:15:47.201Z,12.10
2023-01-01T02:18:16.986Z,12.10
2023-01-01T02:20:58.461Z,12.10
2023-01-01T02:23:40.354Z,12.10
2023-01-01T02:26:10.119Z,12.00
2023-01-01T02:28:42.815Z,12.10
2023-01-01T02:31:17.000Z,12.10
2023-01-01T02:33:50.249Z,12.00
2023-01-01T02:36:18.580Z,12.10
2023-01-01T02:38:49.942Z,12.10
2023-01-01T02:41:23.366Z,12.00
2023-01-01T02:43:50.039Z,12.00
2023-01-01T02:48:43.768Z,12.00
2023-01-01T02:51:37.902Z,12.00
2023-01-01T02:54:19.745Z,11.90
2023-01-01T02:56:53.484Z,11.90
2023-01-01T03:00:02.080Z,11.90
2023-01-01T03:02:50.977Z,11.90
2023-01-01T03:05:33.389Z,11.90
2023-01-01T03:08:08.655Z,11.90
2023-01-01T03:11:01.457Z,12.00
2023-01-01T03:13:49.038Z,11.90
2023-01-01T03:16:36.982Z,11.90
2023-01-01T03:19:12.292Z,12.00
2023-01-01T03:21:53.954Z,12.00
2023-01-01T03:24:27.168Z,12.00
2023-01-01T03:26:58.379Z,12.00
2023-01-01T03:29:29.307Z,12.00
2023-01-01T03:31:59.147Z,12.00
2023-01-01T03:34:34.019Z,12.00
2023-01-01T03:37:05.407Z,11.90
2023-01-01T03:39:36.398Z,12.00
2023-01-01T03:42:13.696Z,11.90
2023-01-01T03:44:50.847Z,11.90
2023-01-01T03:47:17.692Z,11.90
2023-01-01T03:49:45.603Z,11.90
2023-01-01T03:52:48.542Z,11.90
2023-01-01T03:55:47.057Z,11.90
2023-01-01T03:58:24.830Z,11.90
2023-01-01T04:00:56.962Z,11.90
2023-01-01T04:03:27.018Z,11.90
2023-01-01T04:05:54.065Z,11.90
2023-01-01T04:08:21.097Z,11.90
2023-01-01T04:10:53.675Z,11.90
2023-01-01T04:13:20.409Z,11.80
2023-01-01T04:15:47.158Z,11.90
2023-01-01T04:18:13.812Z,11.90
2023-01-01T04:20:40.491Z,11.90
2023-01-01T04:23:07.115Z,11.80
2023-01-01T04:25:33.906Z,11.80
2023-01-01T04:28:03.504Z,11.80
2023-01-01T04:30:30.697Z,11.80
2023-01-01T04:32:57.368Z,11.80
2023-01-01T04:35:24.016Z,11.80
2023-01-01T04:37:50.614Z,11.80
2023-01-01T04:40:17.487Z,11.70
2023-01-01T04:42:44.295Z,11.80
2023-01-01T04:45:15.094Z,11.70
2023-01-01T04:47:42.264Z,11.70
2023-01-01T04:50:09.264Z,11.70
2023-01-01T04:52:35.983Z,11.70
2023-01-01T04:55:02.681Z,11.70
2023-01-01T04:57:30.665Z,11.70
2023-01-01T04:59:57.411Z,11.70
2023-01-01T05:02:24.261Z,11.70
2023-01-01T05:04:51.156Z,11.70
2023-01-01T05:07:17.841Z,11.70
2023-01-01T05:09:44.461Z,11.60
2023-01-01T05:12:11.082Z,11.60
2023-01-01T05:14:37.729Z,11.60
2023-01-01T05:17:04.342Z,11.70
2023-01-01T05:19:30.973Z,11.70
2023-01-01T05:21:57.586Z,11.70
2023-01-01T05:24:24.212Z,11.60
2023-01-01T05:26:50.880Z,11.60
2023-01-01T05:29:17.839Z,11.60
2023-01-01T05:31:45.539Z,11.60
2023-01-01T05:34:12.402Z,11.60
2023-01-01T05:36:39.438Z,11.60
2023-01-01T05:39:08.286Z,11.60
2023-01-01T05:41:36.581Z,11.60
2023-01-01T05:44:05.829Z,11.50
2023-01-01T05:46:33.174Z,11.50
2023-01-01T05:49:00.333Z,11.50
2023-01-01T05:51:28.607Z,11.50
2023-01-01T05:53:56.476Z,11.50
2023-01-01T05:56:24.080Z,11.50
2023-01-01T05:58:50.986Z,11.50
2023-01-01T06:01:19.672Z,11.50
2023-01-01T06:03:49.019Z,11.50
2023-01-01T06:06:21.110Z,11.50
2023-01-01T06:08:55.706Z,11.50
2023-01-01T06:11:22.874Z,11.50
2023-01-01T06:13:53.145Z,11.50
2023-01-01T06:16:20.203Z,11.40
2023-01-01T06:18:46.860Z,11.40
2023-01-01T06:21:31.508Z,11.40
2023-01-01T06:24:00.776Z,11.40
2023-01-01T06:26:31.110Z,11.50
2023-01-01T06:28:58.660Z,11.40
2023-01-01T06:31:25.664Z,11.40
2023-01-01T06:33:52.552Z,11.40
2023-01-01T06:36:21.528Z,11.40
2023-01-01T06:38:52.388Z,11.40
2023-01-01T06:41:21.579Z,11.40
2023-01-01T06:43:48.974Z,11.40
2023-01-01T06:46:21.702Z,11.40
2023-01-01T06:48:51.162Z,11.40
2023-01-01T06:51:20.671Z,11.40
2023-01-01T06:53:48.141Z,11.30
2023-01-01T06:56:15.111Z,11.30
2023-01-01T06:58:41.785Z,11.30
2023-01-01T07:01:12.177Z,11.40
2023-01-01T07:03:39.885Z,11.30
2023-01-01T07:06:07.576Z,11.30
2023-01-01T07:08:34.816Z,11.30
2023-01-01T07:11:02.547Z,11.30
2023-01-01T07:13:30.322Z,11.30
2023-01-01T07:15:57.010Z,11.30
2023-01-01T07:18:24.914Z,11.30
2023-01-01T07:21:03.259Z,11.30
2023-01-01T07:23:31.924Z,11.30
2023-01-01T07:25:58.984Z,11.30
2023-01-01T07:28:25.711Z,11.30
2023-01-01T07:30:53.909Z,11.30
2023-01-01T07:33:24.236Z,11.30
2023-01-01T07:35:50.951Z,11.30
2023-01-01T07:38:17.654Z,11.20
2023-01-01T07:40:44.449Z,11.30
2023-01-01T07:43:12.684Z,11.20
2023-01-01T07:45:39.452Z,11.20
2023-01-01T07:48:06.372Z,11.20
2023-01-01T07:50:33.455Z,11.20
2023-01-01T07:53:00.165Z,11.20
2023-01-01T07:55:27.337Z,11.20
2023-01-01T07:57:54.009Z,11.20
2023-01-01T08:00:22.015Z,11.20
2023-01-01T08:02:48.901Z,11.20
2023-01-01T08:05:18.742Z,11.10
2023-01-01T08:07:50.974Z,11.10
2023-01-01T08:10:20.345Z,11.10
2023-01-01T08:12:47.435Z,11.10
2023-01-01T08:15:15.512Z,11.10
2023-01-01T08:17:46.508Z,11.10
2023-01-01T08:20:14.250Z,11.20
2023-01-01T08:22:40.859Z,11.20
2023-01-01T08:25:08.503Z,11.20
2023-01-01T08:27:35.433Z,11.20
2023-01-01T08:30:02.248Z,11.20
2023-01-01T08:32:28.905Z,11.20
2023-01-01T08:34:55.493Z,11.20
2023-01-01T08:37:23.355Z,11.20
2023-01-01T08:39:51.461Z,11.20
2023-01-01T08:42:18.388Z,11.20
2023-01-01T08:44:45.250Z,11.20
2023-01-01T08:47:23.859Z,11.20
2023-01-01T08:49:50.933Z,11.20
2023-01-01T08:52:18.195Z,11.20
2023-01-01T08:54:45.105Z,11.20
2023-01-01T08:57:12.524Z,11.20
2023-01-01T08:59:39.194Z,11.20
2023-01-01T09:02:06.778Z,11.20
2023-01-01T09:04:33.705Z,11.20
2023-01-01T09:07:00.460Z,11.20
2023-01-01T09:09:31.362Z,11.30
2023-01-01T09:12:04.059Z,11.30
2023-01-01T09:14:31.776Z,11.30
2023-01-01T09:16:58.709Z,11.30
2023-01-01T09:19:25.557Z,11.40
2023-01-01T09:21:53.032Z,11.30
2023-01-01T09:24:19.727Z,11.40
2023-01-01T09:26:46.877Z,11.40
2023-01-01T09:29:13.703Z,11.40
2023-01-01T09:31:41.255Z,11.50
2023-01-01T09:34:07.971Z,11.40
2023-01-01T09:36:34.632Z,11.50
2023-01-01T09:39:02.635Z,11.50
2023-01-01T09:41:47.938Z,11.50
2023-01-01T09:44:38.746Z,11.50
2023-01-01T09:47:24.599Z,11.60
2023-01-01T09:49:55.220Z,11.60
2023-01-01T09:52:22.135Z,11.60
2023-01-01T09:55:03.401Z,11.60
2023-01-01T09:57:31.861Z,11.70
2023-01-01T09:59:59.676Z,11.70
2023-01-01T10:02:51.773Z,11.80
2023-01-01T10:05:57.333Z,11.80
2023-01-01T10:08:38.861Z,11.80
2023-01-01T10:11:26.716Z,11.80
2023-01-01T10:13:56.841Z,11.80
2023-01-01T10:16:28.505Z,11.80
2023-01-01T10:18:58.899Z,11.90
2023-01-01T10:21:33.940Z,11.90
2023-01-01T10:24:31.938Z,11.90
2023-01-01T10:27:02.207Z,11.90
2023-01-01T10:29:40.473Z,11.90
2023-01-01T10:32:36.834Z,11.90
2023-01-01T10:35:14.781Z,11.90
2023-01-01T10:37:42.309Z,11.90
2023-01-01T10:40:19.202Z,12.00
2023-01-01T10:42:49.807Z,11.90
2023-01-01T10:45:20.891Z,12.00
2023-01-01T10:48:14.042Z,11.90
2023-01-01T10:51:02.126Z,12.00
2023-01-01T10:53:43.294Z,12.00
2023-01-01T10:56:15.316Z,12.00
2023-01-01T10:58:49.430Z,12.00
2023-01-01T11:01:19.182Z,12.00
2023-01-01T11:04:13.550Z,12.00
2023-01-01T11:06:42.609Z,11.90
2023-01-01T11:09:37.007Z,12.00
2023-01-01T11:12:15.184Z,12.00
2023-01-01T11:14:54.523Z,12.10
2023-01-01T11:17:26.428Z,12.10
2023-01-01T11:19:59.810Z,12.10
2023-01-01T11:22:41.197Z,12.10
2023-01-01T11:25:18.430Z,12.20
2023-01-01T11:27:45.455Z,12.20
2023-01-01T11:30:38.961Z,12.20
2023-01-01T11:33:05.892Z,12.30
2023-01-01T11:35:46.676Z,12.30
2023-01-01T11:38:21.009Z,12.30
2023-01-01T11:40:54.285Z,12.30
2023-01-01T11:43:24.750Z,12.40
2023-01-01T11:45:53.483Z,12.40
2023-01-01T11:48:30.593Z,12.40
2023-01-01T11:51:02.913Z,12.40
2023-01-01T11:53:39.351Z,12.50
2023-01-01T11:56:18.846Z,12.50
2023-01-01T11:59:03.998Z,12.60
2023-01-01T12:01:44.551Z,12.60
2023-01-01T12:04:31.590Z,12.70
2023-01-01T12:07:10.704Z,12.80
2023-01-01T12:09:46.451Z,12.80
2023-01-01T12:12:25.032Z,12.80
2023-01-01T12:15:11.775Z,12.80
2023-01-01T12:18:06.364Z,12.90
2023-01-01T12:20:37.421Z,12.90
2023-01-01T12:23:04.115Z,12.90
2023-01-01T12:25:41.013Z,12.90
2023-01-01T12:28:19.361Z,12.90
2023-01-01T12:31:01.001Z,12.90
2023-01-01T12:33:33.303Z,12.90
2023-01-01T12:36:15.135Z,12.90
2023-01-01T12:38:56.840Z,13.00
2023-01-01T12:41:40.996Z,12.90
2023-01-01T12:44:19.758Z,13.00
2023-01-01T12:46:52.969Z,13.00
2023-01-01T12:49:41.116Z,13.00
2023-01-01T12:52:31.767Z,13.00
2023-01-01T12:55:23.358Z,13.00
2023-01-01T12:58:05.460Z,12.90
2023-01-01T13:00:32.557Z,12.90
2023-01-01T13:03:05.482Z,12.90
2023-01-01T13:05:41.716Z,12.90
2023-01-01T13:08:08.441Z,12.90
2023-01-01T13:10:39.171Z,13.00
2023-01-01T13:13:06.592Z,13.00
2023-01-01T13:15:39.636Z,13.00
2023-01-01T13:18:20.821Z,12.90
2023-01-01T13:20:57.751Z,13.00
2023-01-01T13:23:38.222Z,13.00
2023-01-01T13:26:23.120Z,13.00
2023-01-01T13:28:58.721Z,13.00
2023-01-01T13:31:41.180Z,13.00
2023-01-01T13:34:37.673Z,13.00
2023-01-01T13:37:10.192Z,12.90
2023-01-01T13:39:58.597Z,12.90
2023-01-01T13:42:52.486Z,12.90
2023-01-01T13:46:09.496Z,12.90
2023-01-01T13:48:36.599Z,12.90
2023-01-01T13:51:54.929Z,12.90
2023-01-01T13:54:40.042Z,12.90
2023-01-01T13:57:37.092Z,12.90
2023-01-01T14:00:22.978Z,12.80
2023-01-01T14:02:59.259Z,12.90
2023-01-01T14:05:33.722Z,12.90
2023-01-01T14:08:00.698Z,13.00
2023-01-01T14:10:29.110Z,12.90
2023-01-01T14:13:18.696Z,13.00
2023-01-01T14:16:13.912Z,13.00
2023-01-01T14:18:47.018Z,13.00
2023-01-01T14:21:16.119Z,13.00
2023-01-01T14:23:48.627Z,13.00
2023-01-01T14:26:26.345Z,13.00
2023-01-01T14:28:59.459Z,13.00
2023-01-01T14:31:30.316Z,12.90
2023-01-01T14:33:57.203Z,12.90
2023-01-01T14:36:29.323Z,12.90
2023-01-01T14:38:58.534Z,12.90
2023-01-01T14:41:42.318Z,12.90
2023-01-01T14:44:17.678Z,12.90
2023-01-01T14:46:50.328Z,12.90
2023-01-01T14:49:28.585Z,12.90
2023-01-01T14:52:02.067Z,12.90
2023-01-01T14:54:33.473Z,12.90
2023-01-01T14:57:01.131Z,12.90
2023-01-01T14:59:32.770Z,12.90
2023-01-01T15:02:12.143Z,12.90
2023-01-01T15:04:39.743Z,12.90
2023-01-01T15:07:07.031Z,12.90
2023-01-01T15:09:33.865Z,12.90
2023-01-01T15:12:00.630Z,12.90
2023-01-01T15:14:32.441Z,12.80
2023-01-01T15:17:13.617Z,12.90
2023-01-01T15:19:44.132Z,12.80
2023-01-01T15:22:25.318Z,12.80
2023-01-01T15:24:52.391Z,12.80
2023-01-01T15:27:25.599Z,12.80
2023-01-01T15:29:53.010Z,12.80
2023-01-01T15:32:45.655Z,12.80
2023-01-01T15:35:27.806Z,12.80
2023-01-01T15:38:00.952Z,12.80
2023-01-01T15:40:27.580Z,12.70
2023-01-01T15:42:57.101Z,12.70
2023-01-01T15:45:38.392Z,12.70
2023-01-01T15:48:05.014Z,12.70
2023-01-01T15:50:38.748Z,12.70
2023-01-01T15:53:13.865Z,12.70
2023-01-01T15:55:44.187Z,12.70
2023-01-01T15:58:22.290Z,12.70
2023-01-01T16:00:56.306Z,12.60
2023-01-01T16:03:26.119Z,12.60
2023-01-01T16:05:58.083Z,12.60
2023-01-01T16:08:25.383Z,12.60
2023-01-01T16:10:52.941Z,12.60
2023-01-01T16:13:19.977Z,12.50
2023-01-01T16:15:51.272Z,12.50
2023-01-01T16:18:18.748Z,12.50
2023-01-01T16:20:46.235Z,12.50
2023-01-01T16:23:13.316Z,12.50
2023-01-01T16:25:40.102Z,12.50
2023-01-01T16:28:06.910Z,12.40
2023-01-01T16:30:33.512Z,12.40
2023-01-01T16:33:00.796Z,12.40
2023-01-01T16:35:27.458Z,12.40
2023-01-01T16:37:54.099Z,12.40
2023-01-01T16:40:20.746Z,12.40
2023-01-01T16:42:47.451Z,12.40
2023-01-01T16:45:20.872Z,12.30
2023-01-01T16:47:47.610Z,12.30
2023-01-01T16:50:14.470Z,12.30
2023-01-01T16:52:44.576Z,12.30
2023-01-01T16:55:12.493Z,12.30
2023-01-01T16:57:40.117Z,12.30
2023-01-01T17:00:09.125Z,12.30
2023-01-01T17:02:38.960Z,12.30
2023-01-01T17:05:05.982Z,12.30
2023-01-01T17:07:32.614Z,12.30
2023-01-01T17:09:59.349Z,12.30
2023-01-01T17:12:25.949Z,12.20
2023-01-01T17:14:52.581Z,12.20
2023-01-01T17:17:19.185Z,12.20
2023-01-01T17:19:45.843Z,12.20
2023-01-01T17:22:12.491Z,12.20
2023-01-01T17:24:39.263Z,12.20
2023-01-01T17:27:05.945Z,12.20
2023-01-01T17:29:32.622Z,12.20
2023-01-01T17:31:59.319Z,12.20
2023-01-01T17:34:26.052Z,12.10
2023-01-01T17:36:52.738Z,12.10
2023-01-01T17:39:19.378Z,12.10
2023-01-01T17:41:46.073Z,12.10
2023-01-01T17:44:12.844Z,12.10
2023-01-01T17:46:40.141Z,12.10
2023-01-01T17:49:09.042Z,12.10
2023-01-01T17:51:35.967Z,12.10
2023-01-01T17:54:03.057Z,12.00
2023-01-01T17:56:29.805Z,12.00
2023-01-01T17:58:56.484Z,12.00
2023-01-01T18:01:23.223Z,12.00
2023-01-01T18:03:58.698Z,12.00
2023-01-01T18:06:25.595Z,12.00
2023-01-01T18:08:57.244Z,12.00
2023-01-01T18:11:25.367Z,12.00
2023-01-01T18:13:51.977Z,12.00
2023-01-01T18:16:18.684Z,11.90
2023-01-01T18:18:45.312Z,12.00
2023-01-01T18:21:14.866Z,11.90
2023-01-01T18:23:41.879Z,11.90
2023-01-01T18:26:10.684Z,12.00
2023-01-01T18:28:38.049Z,11.90
2023-01-01T18:31:13.257Z,11.90
2023-01-01T18:33:40.718Z,11.90
2023-01-01T18:36:13.596Z,11.90
2023-01-01T18:38:43.846Z,11.90
2023-01-01T18:41:40.118Z,11.90
2023-01-01T18:44:24.825Z,11.90
2023-01-01T18:47:07.853Z,11.90
2023-01-01T18:49:36.841Z,11.90
2023-01-01T18:52:06.479Z,11.90
2023-01-01T18:54:34.100Z,11.80
2023-01-01T18:57:13.789Z,11.80
2023-01-01T18:59:40.600Z,11.80
2023-01-01T19:02:39.228Z,11.80
2023-01-01T19:05:17.431Z,11.80
2023-01-01T19:07:53.347Z,11.80
2023-01-01T19:10:20.215Z,11.80
2023-01-01T19:12:48.176Z,11.80
2023-01-01T19:15:18.049Z,11.80
2023-01-01T19:17:45.081Z,11.80
2023-01-01T19:20:21.786Z,11.80
2023-01-01T19:22:48.434Z,11.80
2023-01-01T19:25:37.705Z,11.80
2023-01-01T19:28:34.423Z,11.70
2023-01-01T19:31:02.353Z,11.80
2023-01-01T19:33:29.647Z,11.80
2023-01-01T19:35:56.985Z,11.80
2023-01-01T19:38:23.816Z,11.70
2023-01-01T19:40:50.485Z,11.70
2023-01-01T19:43:17.170Z,11.70
2023-01-01T19:45:43.797Z,11.70
2023-01-01T19:48:10.443Z,11.70
2023-01-01T19:50:37.117Z,11.70
2023-01-01T19:53:03.732Z,11.70
2023-01-01T19:55:30.385Z,11.70
2023-01-01T19:57:57.131Z,11.70
2023-01-01T20:00:27.467Z,11.70
2023-01-01T20:02:55.141Z,11.70
2023-01-01T20:05:22.201Z,11.70
2023-01-01T20:07:48.865Z,11.70
2023-01-01T20:10:15.651Z,11.70
2023-01-01T20:12:42.386Z,11.70
2023-01-01T20:15:09.404Z,11.60
2023-01-01T20:17:36.145Z,11.60
2023-01-01T20:20:02.925Z,11.60
2023-01-01T20:22:29.525Z,11.60
2023-01-01T20:24:56.541Z,11.60
2023-01-01T20:27:26.915Z,11.60
2023-01-01T20:29:56.205Z,11.60
2023-01-01T20:32:23.881Z,11.60
2023-01-01T20:34:51.187Z,11.60
2023-01-01T20:37:36.472Z,11.60
2023-01-01T20:40:11.213Z,11.60
2023-01-01T20:42:37.935Z,11.60
2023-01-01T20:45:06.081Z,11.60
2023-01-01T20:47:33.266Z,11.60
2023-01-01T20:49:59.946Z,11.60
2023-01-01T20:52:26.595Z,11.60
2023-01-01T20:54:53.219Z,11.60
2023-01-01T20:57:19.876Z,11.60
2023-01-01T20:59:46.463Z,11.60
2023-01-01T21:02:13.633Z,11.60
2023-01-01T21:04:40.782Z,11.50
2023-01-01T21:07:12.085Z,11.50
2023-01-01T21:09:40.315Z,11.50
2023-01-01T21:12:07.654Z,11.50
2023-01-01T21:14:34.787Z,11.50
2023-01-01T21:17:14.928Z,11.50
2023-01-01T21:19:41.588Z,11.50
2023-01-01T21:22:13.327Z,11.50
2023-01-01T21:24:40.001Z,11.50
2023-01-01T21:27:22.883Z,11.50
2023-01-01T21:29:52.804Z,11.50
2023-01-01T21:32:44.020Z,11.50
2023-01-01T21:35:23.744Z,11.50
2023-01-01T21:37:57.229Z,11.40
2023-01-01T21:40:48.531Z,11.50
2023-01-01T21:43:33.208Z,11.50
2023-01-01T21:46:16.843Z,11.40
2023-01-01T21:48:57.307Z,11.50
2023-01-01T21:51:47.087Z,11.40
2023-01-01T21:54:34.096Z,11.40
2023-01-01T21:57:02.724Z,11.40
2023-01-01T21:59:35.590Z,11.40
2023-01-01T22:02:33.861Z,11.40
2023-01-01T22:05:11.908Z,11.40
2023-01-01T22:10:34.448Z,11.40
2023-01-01T22:13:01.785Z,11.40
2023-01-01T22:15:41.510Z,11.40
2023-01-01T22:18:27.258Z,11.40
2023-01-01T22:20:54.766Z,11.40
2023-01-01T22:23:41.775Z,11.40
2023-01-01T22:26:21.907Z,11.40
2023-01-01T22:28:52.892Z,11.40
2023-01-01T22:31:27.153Z,11.40
2023-01-01T22:34:00.393Z,11.40
2023-01-01T22:36:29.584Z,11.40
2023-01-01T22:39:02.737Z,11.40
2023-01-01T22:41:29.630Z,11.40
2023-01-01T22:44:02.817Z,11.40
2023-01-01T22:46:37.093Z,11.40
2023-01-01T22:49:23.761Z,11.40
2023-01-01T22:51:54.659Z,11.40
2023-01-01T22:54:21.372Z,11.40
2023-01-01T22:56:47.969Z,11.40
2023-01-01T22:59:14.636Z,11.40
2023-01-01T23:01:41.597Z,11.40
2023-01-01T23:04:08.268Z,11.40
2023-01-01T23:06:34.939Z,11.40
2023-01-01T23:09:01.590Z,11.40
2023-01-01T23:11:28.306Z,11.40
2023-01-01T23:14:13.658Z,11.40
2023-01-01T23:16:40.310Z,11.40
2023-01-01T23:19:07.117Z,11.40
2023-01-01T23:21:35.675Z,11.40
2023-01-01T23:24:06.330Z,11.40
2023-01-01T23:26:33.396Z,11.40
2023-01-01T23:29:00.174Z,11.40
2023-01-01T23:31:27.926Z,11.40
2023-01-01T23:33:57.142Z,11.40
2023-01-01T23:36:25.485Z,11.40
2023-01-01T23:38:52.561Z,11.40
2023-01-01T23:41:19.466Z,11.40
2023-01-01T23:43:46.166Z,11.40
2023-01-01T23:46:13.839Z,11.40
2023-01-01T23:48:42.134Z,11.40
2023-01-01T23:51:09.105Z,11.40
2023-01-01T23:53:35.745Z,11.40
2023-01-01T23:56:02.723Z,11.40
2023-01-01T23:58:29.359Z,11.40
